createdAt,value
2023-04-28T00:00:12.552Z,52.83
2023-04-28T00:02:38.966Z,52.40
2023-04-28T00:05:05.498Z,52.35
2023-04-28T00:07:31.967Z,52.69
2023-04-28T00:09:58.399Z,52.39
2023-04-28T00:12:24.835Z,52.53
2023-04-28T00:14:51.520Z,52.56
2023-04-28T00:17:18.331Z,52.58
2023-04-28T00:19:44.690Z,52.45
2023-04-28T00:22:11.146Z,52.23
2023-04-28T00:24:37.607Z,52.29
2023-04-28T00:27:04.035Z,52.19
2023-04-28T00:29:30.569Z,51.94
2023-04-28T00:31:57.218Z,52.08
2023-04-28T00:34:23.612Z,52.10
2023-04-28T00:36:50.030Z,52.13
2023-04-28T00:39:16.665Z,51.84
2023-04-28T00:41:44.262Z,51.98
2023-04-28T00:44:10.570Z,51.72
2023-04-28T00:46:36.966Z,52.00
2023-04-28T00:49:03.636Z,51.75
2023-04-28T00:51:32.557Z,51.68
2023-04-28T00:53:59.612Z,51.91
2023-04-28T00:56:26.016Z,51.75
2023-04-28T00:58:52.467Z,51.83
2023-04-28T01:01:19.044Z,51.66
2023-04-28T01:03:50.295Z,52.03
2023-04-28T01:06:23.034Z,51.59
2023-04-28T01:08:50.771Z,51.73
2023-04-28T01:11:17.578Z,51.82
2023-04-28T01:13:44.008Z,51.62
2023-04-28T01:16:11.101Z,51.43
2023-04-28T01:18:39.638Z,51.39
2023-04-28T01:21:06.238Z,51.31
2023-04-28T01:23:32.990Z,51.51
2023-04-28T01:25:59.553Z,51.43
2023-04-28T01:28:25.834Z,51.49
2023-04-28T01:30:52.174Z,51.11
2023-04-28T01:33:18.644Z,51.52
2023-04-28T01:35:45.311Z,51.27
2023-04-28T01:38:11.934Z,51.34
2023-04-28T01:40:38.422Z,51.27
2023-04-28T01:43:04.741Z,51.17
2023-04-28T01:45:31.898Z,51.48
2023-04-28T01:47:58.256Z,51.43
2023-04-28T01:50:25.741Z,51.41
2023-04-28T01:52:52.172Z,51.36
2023-04-28T01:55:18.553Z,51.33
2023-04-28T01:57:45.475Z,51.39
2023-04-28T02:00:12.030Z,51.03
2023-04-28T02:02:39.159Z,51.08
2023-04-28T02:05:06.385Z,51.29
2023-04-28T02:07:32.788Z,51.06
2023-04-28T02:09:59.163Z,51.25
2023-04-28T02:12:25.600Z,51.02
2023-04-28T02:14:51.923Z,50.91
2023-04-28T02:17:18.363Z,51.00
2023-04-28T02:19:44.720Z,51.07
2023-04-28T02:22:11.305Z,51.01
2023-04-28T02:24:37.659Z,51.16
2023-04-28T02:27:04.108Z,51.22
2023-04-28T02:29:30.506Z,51.21
2023-04-28T02:31:57.119Z,50.86
2023-04-28T02:37:16.909Z,50.86
2023-04-28T02:39:43.328Z,51.09
2023-04-28T02:42:09.742Z,51.11
2023-04-28T02:44:36.555Z,51.27
2023-04-28T02:47:02.969Z,51.10
2023-04-28T02:49:29.518Z,51.12
2023-04-28T02:51:56.229Z,51.06
2023-04-28T02:54:22.863Z,51.08
2023-04-28T02:56:49.405Z,50.89
2023-04-28T02:59:15.847Z,50.97
2023-04-28T03:01:42.266Z,50.96
2023-04-28T03:04:09.444Z,51.30
2023-04-28T03:06:35.926Z,51.10
2023-04-28T03:09:02.487Z,51.12
2023-04-28T03:11:28.880Z,51.08
2023-04-28T03:13:55.245Z,50.92
2023-04-28T03:16:21.586Z,51.17
2023-04-28T03:18:48.082Z,51.11
2023-04-28T03:21:15.012Z,51.09
2023-04-28T03:23:41.377Z,50.89
2023-04-28T03:26:08.153Z,50.93
2023-04-28T03:28:35.055Z,51.17
2023-04-28T03:31:02.746Z,51.21
2023-04-28T03:33:29.078Z,50.90
2023-04-28T03:35:55.569Z,50.86
2023-04-28T03:38:23.030Z,50.89
2023-04-28T03:40:49.458Z,50.99
2023-04-28T03:43:15.811Z,50.96
2023-04-28T03:45:42.204Z,51.25
2023-04-28T03:48:08.663Z,51.09
2023-04-28T03:50:35.191Z,50.95
2023-04-28T03:53:01.837Z,51.15
2023-04-28T03:55:28.419Z,51.12
2023-04-28T03:57:54.865Z,51.07
2023-04-28T04:00:21.249Z,51.14
2023-04-28T04:02:48.045Z,51.00
2023-04-28T04:05:14.780Z,51.00
2023-04-28T04:07:41.258Z,51.10
2023-04-28T04:10:07.681Z,51.02
2023-04-28T04:12:33.985Z,51.04
2023-04-28T04:15:01.780Z,51.07
2023-04-28T04:17:29.717Z,50.98
2023-04-28T04:19:56.919Z,51.01
2023-04-28T04:22:23.241Z,50.98
2023-04-28T04:24:49.749Z,51.22
2023-04-28T04:27:16.180Z,50.83
2023-04-28T04:29:42.468Z,51.01
2023-04-28T04:32:08.819Z,51.12
2023-04-28T04:34:35.589Z,51.22
2023-04-28T04:37:01.989Z,50.83
2023-04-28T04:39:28.315Z,51.01
2023-04-28T04:41:54.726Z,51.08
2023-04-28T04:44:21.037Z,51.04
2023-04-28T04:46:49.020Z,51.00
2023-04-28T04:49:15.515Z,50.88
2023-04-28T04:51:42.046Z,51.30
2023-04-28T04:54:08.509Z,51.11
2023-04-28T04:56:34.907Z,51.05
2023-04-28T04:59:01.414Z,51.22
2023-04-28T05:01:27.844Z,51.07
2023-04-28T05:03:54.632Z,51.11
2023-04-28T05:06:21.265Z,50.98
2023-04-28T05:08:47.637Z,51.12
2023-04-28T05:11:13.983Z,51.11
2023-04-28T05:13:40.675Z,51.20
2023-04-28T05:16:07.292Z,51.16
2023-04-28T05:18:33.772Z,50.99
2023-04-28T05:21:00.074Z,51.06
2023-04-28T05:23:26.588Z,50.90
2023-04-28T05:25:53.120Z,51.05
2023-04-28T05:28:21.973Z,50.75
2023-04-28T05:30:48.835Z,51.04
2023-04-28T05:33:15.512Z,50.86
2023-04-28T05:35:41.906Z,51.08
2023-04-28T05:38:08.757Z,51.18
2023-04-28T05:40:35.148Z,51.51
2023-04-28T05:43:02.795Z,51.67
2023-04-28T05:45:29.453Z,51.51
2023-04-28T05:47:55.946Z,51.25
2023-04-28T05:50:22.336Z,51.17
2023-04-28T05:52:48.923Z,51.03
2023-04-28T05:55:15.459Z,51.24
2023-04-28T05:57:49.675Z,50.89
2023-04-28T06:00:18.988Z,50.85
2023-04-28T06:02:45.772Z,51.04
2023-04-28T06:05:12.540Z,51.17
2023-04-28T06:07:39.272Z,51.21
2023-04-28T06:10:05.884Z,51.28
2023-04-28T06:12:32.318Z,51.33
2023-04-28T06:14:58.712Z,51.44
2023-04-28T06:17:25.230Z,50.98
2023-04-28T06:19:51.630Z,51.35
2023-04-28T06:22:18.050Z,51.56
2023-04-28T06:24:44.308Z,51.64
2023-04-28T06:27:10.736Z,51.47
2023-04-28T06:29:37.573Z,51.56
2023-04-28T06:32:04.019Z,51.58
2023-04-28T06:34:30.341Z,51.56
2023-04-28T06:36:56.755Z,51.30
2023-04-28T06:39:23.461Z,51.23
2023-04-28T06:41:49.757Z,51.30
2023-04-28T06:44:16.544Z,50.98
2023-04-28T06:46:43.336Z,50.85
2023-04-28T06:49:09.750Z,50.87
2023-04-28T06:51:36.530Z,50.68
2023-04-28T06:54:03.060Z,50.82
2023-04-28T06:56:29.584Z,50.60
2023-04-28T06:58:55.978Z,50.66
2023-04-28T07:01:22.389Z,50.39
2023-04-28T07:03:49.214Z,50.75
2023-04-28T07:06:16.007Z,50.64
2023-04-28T07:08:42.319Z,50.45
2023-04-28T07:11:08.740Z,50.60
2023-04-28T07:13:35.189Z,50.43
2023-04-28T07:16:02.067Z,50.44
2023-04-28T07:18:28.534Z,50.60
2023-04-28T07:20:55.036Z,50.40
2023-04-28T07:23:21.408Z,50.36
2023-04-28T07:25:47.828Z,50.61
2023-04-28T07:28:14.226Z,50.22
2023-04-28T07:30:40.700Z,50.70
2023-04-28T07:33:07.385Z,50.34
2023-04-28T07:35:33.794Z,50.38
2023-04-28T07:38:00.188Z,50.28
2023-04-28T07:40:26.623Z,50.62
2023-04-28T07:42:53.087Z,50.58
2023-04-28T07:45:19.536Z,50.36
2023-04-28T07:47:46.178Z,50.59
2023-04-28T07:50:12.713Z,50.56
2023-04-28T07:52:39.225Z,50.23
2023-04-28T07:55:06.363Z,50.58
2023-04-28T07:57:32.836Z,50.44
2023-04-28T07:59:59.167Z,50.43
2023-04-28T08:02:25.934Z,50.70
2023-04-28T08:04:52.522Z,50.35
2023-04-28T08:07:19.043Z,50.73
2023-04-28T08:09:45.404Z,50.60
2023-04-28T08:12:11.772Z,50.81
2023-04-28T08:14:38.218Z,50.61
2023-04-28T08:17:04.762Z,50.81
2023-04-28T08:19:31.743Z,50.58
2023-04-28T08:21:58.186Z,50.75
2023-04-28T08:24:24.687Z,50.81
2023-04-28T08:26:51.051Z,50.47
2023-04-28T08:29:17.419Z,50.49
2023-04-28T08:31:44.170Z,50.72
2023-04-28T08:34:10.641Z,50.68
2023-04-28T08:36:37.198Z,50.54
2023-04-28T08:39:03.608Z,50.42
2023-04-28T08:41:29.990Z,50.63
2023-04-28T08:43:56.702Z,50.55
2023-04-28T08:46:23.170Z,50.38
2023-04-28T08:48:49.809Z,50.43
2023-04-28T08:51:16.361Z,50.43
2023-04-28T08:54:06.138Z,50.46
2023-04-28T08:56:29.160Z,50.70
2023-04-28T08:58:55.573Z,50.93
2023-04-28T09:01:21.987Z,50.66
2023-04-28T09:03:48.553Z,50.88
2023-04-28T09:06:16.863Z,50.79
2023-04-28T09:08:43.291Z,50.97
2023-04-28T09:11:09.708Z,50.87
2023-04-28T09:13:36.071Z,51.02
2023-04-28T09:16:02.451Z,51.06
2023-04-28T09:18:28.765Z,51.16
2023-04-28T09:20:55.664Z,51.27
2023-04-28T09:23:22.258Z,51.37
2023-04-28T09:25:58.476Z,51.24
2023-04-28T09:28:24.888Z,51.19
2023-04-28T09:30:51.476Z,51.54
2023-04-28T09:33:17.994Z,51.50
2023-04-28T09:35:44.415Z,51.16
2023-04-28T09:38:11.338Z,51.50
2023-04-28T09:40:38.507Z,51.60
2023-04-28T09:43:15.295Z,51.71
2023-04-28T09:45:47.865Z,51.80
2023-04-28T09:48:14.285Z,51.66
2023-04-28T09:50:40.737Z,51.34
2023-04-28T09:53:07.583Z,51.75
2023-04-28T09:55:33.916Z,51.70
2023-04-28T09:58:00.326Z,51.81
2023-04-28T10:00:27.101Z,51.67
2023-04-28T10:02:53.636Z,51.75
2023-04-28T10:05:20.846Z,51.95
2023-04-28T10:07:47.361Z,51.92
2023-04-28T10:10:13.778Z,51.91
2023-04-28T10:12:40.217Z,51.89
2023-04-28T10:15:06.606Z,51.89
2023-04-28T10:17:33.046Z,52.13
2023-04-28T10:19:59.511Z,52.05
2023-04-28T10:22:26.264Z,52.09
2023-04-28T10:24:52.652Z,52.12
2023-04-28T10:27:19.745Z,52.02
2023-04-28T10:29:46.191Z,51.76
2023-04-28T10:32:13.116Z,51.64
2023-04-28T10:34:39.557Z,51.93
2023-04-28T10:37:05.979Z,51.70
2023-04-28T10:39:32.441Z,51.85
2023-04-28T10:41:59.362Z,51.75
2023-04-28T10:44:25.660Z,51.79
2023-04-28T10:46:53.481Z,51.64
2023-04-28T10:49:19.970Z,51.81
2023-04-28T10:51:46.528Z,51.90
2023-04-28T10:54:12.887Z,51.84
2023-04-28T10:56:41.375Z,51.75
2023-04-28T10:59:08.409Z,51.81
2023-04-28T11:01:35.172Z,51.96
2023-04-28T11:04:01.936Z,52.22
2023-04-28T11:06:28.767Z,52.12
2023-04-28T11:08:55.278Z,52.37
2023-04-28T11:11:21.971Z,52.64
2023-04-28T11:13:48.668Z,52.59
2023-04-28T11:16:15.439Z,52.52
2023-04-28T11:18:42.414Z,52.47
2023-04-28T11:21:09.096Z,52.56
2023-04-28T11:23:35.510Z,52.37
2023-04-28T11:26:01.894Z,52.79
2023-04-28T11:28:28.689Z,52.57
2023-04-28T11:30:55.159Z,52.74
2023-04-28T11:33:21.623Z,52.55
2023-04-28T11:35:47.964Z,52.48
2023-04-28T11:38:14.777Z,52.59
2023-04-28T11:40:41.746Z,52.50
2023-04-28T11:43:08.125Z,51.70
2023-04-28T11:45:34.514Z,51.84
2023-04-28T11:48:01.017Z,52.35
2023-04-28T11:50:27.660Z,52.29
2023-04-28T11:52:54.151Z,52.46
2023-04-28T11:55:20.598Z,52.41
2023-04-28T11:57:46.975Z,52.52
2023-04-28T12:00:13.362Z,52.37
2023-04-28T12:02:40.195Z,52.41
2023-04-28T12:05:06.753Z,52.35
2023-04-28T12:07:33.930Z,52.54
2023-04-28T12:10:00.255Z,52.52
2023-04-28T12:12:39.579Z,52.62
2023-04-28T12:15:12.203Z,52.45
2023-04-28T12:17:39.618Z,52.68
2023-04-28T12:20:05.898Z,52.54
2023-04-28T12:22:32.232Z,52.71
2023-04-28T12:24:58.680Z,52.56
2023-04-28T12:27:25.516Z,52.55
2023-04-28T12:29:51.899Z,52.73
2023-04-28T12:32:18.322Z,52.60
2023-04-28T12:34:46.218Z,52.61
2023-04-28T12:37:12.530Z,52.82
2023-04-28T12:39:39.767Z,52.69
2023-04-28T12:42:06.530Z,52.71
2023-04-28T12:44:32.957Z,52.82
2023-04-28T12:47:01.225Z,52.72
2023-04-28T12:49:27.788Z,52.86
2023-04-28T12:51:54.120Z,52.74
2023-04-28T12:54:20.761Z,52.83
2023-04-28T12:56:47.511Z,52.73
2023-04-28T12:59:13.836Z,52.96
2023-04-28T13:01:40.241Z,52.76
2023-04-28T13:04:07.295Z,52.84
2023-04-28T13:06:33.869Z,53.21
2023-04-28T13:09:00.340Z,52.81
2023-04-28T13:11:27.047Z,52.83
2023-04-28T13:13:53.888Z,52.96
2023-04-28T13:16:20.285Z,53.07
2023-04-28T13:18:46.569Z,52.86
2023-04-28T13:21:13.106Z,52.99
2023-04-28T13:23:39.632Z,52.89
2023-04-28T13:26:06.355Z,52.85
2023-04-28T13:28:32.788Z,52.94
2023-04-28T13:30:59.562Z,53.24
2023-04-28T13:33:26.199Z,52.96
2023-04-28T13:35:52.858Z,53.28
2023-04-28T13:38:19.563Z,52.88
2023-04-28T13:40:46.151Z,53.02
2023-04-28T13:43:12.852Z,52.99
2023-04-28T13:45:39.265Z,53.01
2023-04-28T13:48:05.656Z,53.08
2023-04-28T13:50:32.359Z,53.11
2023-04-28T13:52:58.708Z,52.88
2023-04-28T13:55:25.100Z,53.19
2023-04-28T13:57:52.598Z,53.16
2023-04-28T14:00:19.044Z,53.06
2023-04-28T14:02:45.517Z,53.14
2023-04-28T14:05:11.965Z,53.25
2023-04-28T14:07:38.347Z,53.37
2023-04-28T14:10:05.204Z,53.47
2023-04-28T14:12:31.586Z,53.10
2023-04-28T14:14:57.984Z,53.29
2023-04-28T14:17:25.124Z,53.19
2023-04-28T14:19:52.359Z,53.19
2023-04-28T14:22:18.668Z,53.10
2023-04-28T14:24:45.249Z,53.27
2023-04-28T14:27:11.991Z,53.34
2023-04-28T14:29:38.298Z,53.32
2023-04-28T14:32:04.733Z,53.28
2023-04-28T14:34:31.351Z,53.50
2023-04-28T14:36:57.762Z,53.28
2023-04-28T14:39:24.189Z,53.35
2023-04-28T14:41:50.780Z,53.34
2023-04-28T14:44:17.149Z,53.46
2023-04-28T14:46:44.897Z,53.59
2023-04-28T14:49:11.335Z,53.52
2023-04-28T14:51:38.436Z,53.38
2023-04-28T14:54:05.046Z,53.44
2023-04-28T14:56:33.373Z,53.52
2023-04-28T14:59:00.273Z,53.57
2023-04-28T15:01:26.676Z,53.76
2023-04-28T15:03:53.262Z,53.55
2023-04-28T15:06:19.850Z,53.77
2023-04-28T15:08:46.535Z,53.56
2023-04-28T15:11:13.131Z,53.61
2023-04-28T15:13:41.001Z,53.84
2023-04-28T15:16:08.813Z,53.70
2023-04-28T15:18:36.854Z,53.77
2023-04-28T15:21:03.483Z,53.98
2023-04-28T15:23:29.895Z,53.83
2023-04-28T15:25:56.572Z,53.91
2023-04-28T15:28:23.310Z,53.72
2023-04-28T15:30:49.672Z,53.93
2023-04-28T15:33:16.088Z,53.85
2023-04-28T15:35:43.059Z,54.01
2023-04-28T15:38:09.650Z,53.95
2023-04-28T15:40:36.150Z,53.92
2023-04-28T15:43:02.848Z,53.84
2023-04-28T15:45:29.419Z,53.80
2023-04-28T15:47:56.387Z,53.99
2023-04-28T15:50:22.699Z,53.97
2023-04-28T15:52:49.160Z,53.76
2023-04-28T15:55:16.068Z,54.15
2023-04-28T15:57:42.358Z,54.02
2023-04-28T16:00:08.688Z,53.84
2023-04-28T16:02:35.212Z,54.09
2023-04-28T16:05:01.751Z,53.91
2023-04-28T16:07:28.202Z,53.85
2023-04-28T16:09:54.982Z,54.01
2023-04-28T16:12:21.329Z,54.21
2023-04-28T16:14:47.621Z,53.82
2023-04-28T16:17:13.943Z,53.96
2023-04-28T16:19:40.243Z,54.08
2023-04-28T16:22:06.679Z,53.89
2023-04-28T16:24:33.005Z,54.19
2023-04-28T16:26:59.452Z,54.17
2023-04-28T16:29:25.866Z,54.18
2023-04-28T16:31:54.505Z,54.11
2023-04-28T16:34:21.211Z,54.10
2023-04-28T16:36:47.597Z,54.26
2023-04-28T16:39:14.030Z,54.18
2023-04-28T16:41:41.004Z,54.04
2023-04-28T16:44:07.347Z,54.10
2023-04-28T16:46:34.813Z,54.23
2023-04-28T16:49:01.189Z,54.06
2023-04-28T16:51:27.654Z,54.08
2023-04-28T16:53:54.079Z,53.97
2023-04-28T16:56:20.528Z,54.11
2023-04-28T16:58:47.019Z,54.11
2023-04-28T17:01:13.404Z,54.10
2023-04-28T17:03:40.307Z,54.08
2023-04-28T17:06:07.081Z,54.17
2023-04-28T17:08:33.520Z,53.97
2023-04-28T17:11:01.137Z,54.06
2023-04-28T17:13:27.711Z,53.99
2023-04-28T17:15:54.125Z,54.15
2023-04-28T17:18:20.723Z,54.20
2023-04-28T17:20:47.094Z,54.04
2023-04-28T17:23:14.022Z,54.20
2023-04-28T17:25:40.565Z,54.01
2023-04-28T17:28:06.901Z,54.02
2023-04-28T17:30:33.527Z,54.32
2023-04-28T17:33:00.130Z,53.93
2023-04-28T17:35:26.529Z,54.21
2023-04-28T17:37:53.089Z,53.99
2023-04-28T17:40:19.467Z,54.13
2023-04-28T17:42:46.101Z,54.06
2023-04-28T17:45:13.267Z,53.95
2023-04-28T17:47:40.038Z,54.11
2023-04-28T17:50:06.347Z,54.15
2023-04-28T17:52:32.771Z,54.03
2023-04-28T17:54:59.111Z,53.99
2023-04-28T17:57:25.526Z,54.06
2023-04-28T17:59:51.910Z,54.19
2023-04-28T18:02:18.348Z,54.09
2023-04-28T18:04:44.747Z,54.08
2023-04-28T18:07:11.236Z,54.07
2023-04-28T18:09:37.683Z,54.03
2023-04-28T18:12:04.103Z,54.05
2023-04-28T18:14:30.532Z,53.93
2023-04-28T18:16:56.893Z,54.18
2023-04-28T18:19:23.545Z,54.20
2023-04-28T18:21:50.127Z,53.94
2023-04-28T18:24:17.089Z,54.24
2023-04-28T18:26:43.498Z,54.02
2023-04-28T18:29:09.896Z,54.21
2023-04-28T18:31:36.361Z,53.96
2023-04-28T18:34:03.117Z,53.99
2023-04-28T18:36:29.455Z,54.29
2023-04-28T18:38:55.914Z,54.35
2023-04-28T18:41:22.192Z,54.06
2023-04-28T18:43:48.634Z,54.16
2023-04-28T18:46:15.037Z,54.36
2023-04-28T18:48:41.600Z,54.16
2023-04-28T18:51:07.999Z,54.18
2023-04-28T18:53:34.588Z,54.14
2023-04-28T18:56:03.754Z,54.13
2023-04-28T18:58:30.345Z,54.12
2023-04-28T19:00:57.303Z,54.14
2023-04-28T19:03:23.824Z,54.32
2023-04-28T19:05:50.275Z,54.25
2023-04-28T19:08:16.596Z,54.06
2023-04-28T19:10:43.275Z,54.24
2023-04-28T19:13:10.027Z,54.24
2023-04-28T19:15:36.593Z,54.10
2023-04-28T19:18:03.132Z,54.21
2023-04-28T19:20:30.098Z,54.21
2023-04-28T19:22:57.213Z,54.11
2023-04-28T19:25:23.918Z,54.10
2023-04-28T19:27:50.573Z,54.35
2023-04-28T19:30:16.946Z,54.31
2023-04-28T19:32:43.430Z,54.37
2023-04-28T19:35:09.869Z,54.39
2023-04-28T19:37:36.170Z,54.16
2023-04-28T19:40:02.901Z,54.16
2023-04-28T19:42:29.689Z,54.16
2023-04-28T19:44:55.976Z,54.45
2023-04-28T19:47:22.542Z,54.11
2023-04-28T19:49:49.197Z,54.33
2023-04-28T19:52:16.058Z,54.14
2023-04-28T19:54:42.479Z,54.33
2023-04-28T19:57:09.437Z,54.27
2023-04-28T19:59:35.830Z,54.27
2023-04-28T20:02:02.332Z,54.19
2023-04-28T20:04:29.164Z,54.21
2023-04-28T20:06:55.972Z,54.47
2023-04-28T20:09:22.362Z,54.37
2023-04-28T20:11:48.725Z,54.31
2023-04-28T20:14:15.145Z,54.37
2023-04-28T20:16:41.530Z,54.29
2023-04-28T20:19:08.330Z,54.49
2023-04-28T20:21:34.766Z,54.28
2023-04-28T20:24:01.510Z,54.32
2023-04-28T20:26:27.913Z,54.32
2023-04-28T20:28:54.707Z,54.19
2023-04-28T20:31:21.390Z,54.45
2023-04-28T20:33:48.041Z,54.45
2023-04-28T20:36:14.690Z,54.46
2023-04-28T20:38:41.115Z,54.37
2023-04-28T20:41:07.476Z,54.49
2023-04-28T20:43:34.316Z,54.44
2023-04-28T20:46:00.942Z,54.47
2023-04-28T20:48:27.668Z,54.28
2023-04-28T20:50:53.984Z,54.49
2023-04-28T20:53:20.436Z,54.29
2023-04-28T20:55:46.743Z,54.29
2023-04-28T20:58:13.095Z,54.34
2023-04-28T21:00:39.757Z,54.42
2023-04-28T21:03:06.320Z,54.36
2023-04-28T21:05:33.106Z,54.33
2023-04-28T21:07:59.472Z,54.60
2023-04-28T21:10:26.092Z,54.58
2023-04-28T21:12:52.496Z,54.40
2023-04-28T21:15:18.865Z,54.53
2023-04-28T21:17:45.433Z,54.53
2023-04-28T21:20:11.827Z,54.53
2023-04-28T21:22:38.462Z,54.49
2023-04-28T21:25:05.173Z,54.64
2023-04-28T21:27:31.783Z,54.63
2023-04-28T21:29:58.266Z,54.57
2023-04-28T21:32:25.159Z,54.50
2023-04-28T21:34:51.725Z,54.64
2023-04-28T21:37:18.086Z,54.56
2023-04-28T21:39:45.091Z,54.57
2023-04-28T21:42:11.446Z,54.63
2023-04-28T21:44:37.765Z,54.46
2023-04-28T21:47:04.157Z,54.55
2023-04-28T21:49:30.533Z,54.59
2023-04-28T21:51:57.014Z,54.59
2023-04-28T21:54:23.379Z,54.34
2023-04-28T21:56:49.840Z,54.56
2023-04-28T21:59:16.250Z,54.58
2023-04-28T22:01:43.297Z,54.50
2023-04-28T22:04:09.994Z,54.74
2023-04-28T22:06:36.557Z,54.57
2023-04-28T22:09:03.134Z,54.54
2023-04-28T22:11:29.542Z,54.57
2023-04-28T22:13:55.958Z,54.73
2023-04-28T22:16:24.256Z,54.81
2023-04-28T22:18:50.756Z,54.88
2023-04-28T22:21:17.152Z,54.83
2023-04-28T22:23:43.531Z,54.72
2023-04-28T22:26:10.124Z,54.91
2023-04-28T22:28:36.944Z,54.55
2023-04-28T22:31:03.294Z,54.70
2023-04-28T22:33:29.662Z,54.76
2023-04-28T22:35:56.141Z,55.02
2023-04-28T22:38:23.769Z,54.71
2023-04-28T22:40:50.413Z,54.72
2023-04-28T22:43:17.350Z,54.76
2023-04-28T22:45:43.915Z,54.95
2023-04-28T22:48:10.413Z,54.87
2023-04-28T22:50:37.789Z,55.00
2023-04-28T22:53:04.293Z,54.79
2023-04-28T22:55:32.670Z,54.86
2023-04-28T22:57:59.334Z,55.10
2023-04-28T23:00:25.739Z,54.92
2023-04-28T23:02:52.549Z,55.03
2023-04-28T23:05:18.881Z,54.71
2023-04-28T23:07:45.711Z,54.90
2023-04-28T23:10:14.266Z,54.93
2023-04-28T23:12:41.326Z,55.03
2023-04-28T23:15:08.173Z,55.02
2023-04-28T23:17:34.726Z,54.92
2023-04-28T23:20:10.998Z,54.77
2023-04-28T23:22:37.795Z,55.08
2023-04-28T23:25:04.158Z,54.95
2023-04-28T23:27:30.669Z,54.92
2023-04-28T23:29:57.054Z,55.23
2023-04-28T23:32:23.461Z,54.90
2023-04-28T23:34:49.993Z,55.03
2023-04-28T23:37:16.471Z,54.91
2023-04-28T23:39:43.168Z,54.95
2023-04-28T23:42:09.472Z,55.15
2023-04-28T23:44:35.977Z,55.10
2023-04-28T23:47:02.636Z,55.17
2023-04-28T23:49:29.291Z,55.00
2023-04-28T23:51:55.764Z,55.18
2023-04-28T23:54:22.326Z,55.05
2023-04-28T23:56:48.858Z,55.37
2023-04-28T23:59:15.269Z,54.91
